sensor_id;sensor_type;location;lat;lon;timestamp;P1;durP1;ratioP1;P2;durP2;ratioP2
18316;SDS011;9284;52.298;21.164;2023-06-14T00:01:42;18.35;;;11.75;;
18316;SDS011;9284;52.298;21.164;2023-06-14T00:04:12;16.98;;;11.60;;
18316;SDS011;9284;52.298;21.164;2023-06-14T00:06:47;20.73;;;11.25;;
18316;SDS011;9284;52.298;21.164;2023-06-14T00:09:23;20.55;;;12.20;;
18316;SDS011;9284;52.298;21.164;2023-06-14T00:11:53;17.23;;;11.32;;
18316;SDS011;9284;52.298;21.164;2023-06-14T00:14:24;20.42;;;10.93;;
18316;SDS011;9284;52.298;21.164;2023-06-14T00:16:53;21.65;;;11.23;;
18316;SDS011;9284;52.298;21.164;2023-06-14T00:19:27;17.13;;;11.18;;
18316;SDS011;9284;52.298;21.164;2023-06-14T00:22:01;16.67;;;10.75;;
18316;SDS011;9284;52.298;21.164;2023-06-14T00:24:29;19.15;;;11.93;;
18316;SDS011;9284;52.298;21.164;2023-06-14T00:27:00;20.35;;;12.40;;
18316;SDS011;9284;52.298;21.164;2023-06-14T00:29:30;16.88;;;11.45;;
18316;SDS011;9284;52.298;21.164;2023-06-14T00:31:59;22.10;;;12.55;;
18316;SDS011;9284;52.298;21.164;2023-06-14T00:34:32;18.20;;;11.40;;
18316;SDS011;9284;52.298;21.164;2023-06-14T00:37:01;17.83;;;11.80;;
18316;SDS011;9284;52.298;21.164;2023-06-14T00:39:30;22.02;;;12.20;;
18316;SDS011;9284;52.298;21.164;2023-06-14T00:42:05;20.15;;;12.02;;
18316;SDS011;9284;52.298;21.164;2023-06-14T00:44:34;16.60;;;10.88;;
18316;SDS011;9284;52.298;21.164;2023-06-14T00:47:03;16.30;;;11.10;;
18316;SDS011;9284;52.298;21.164;2023-06-14T00:49:33;18.75;;;11.75;;
18316;SDS011;9284;52.298;21.164;2023-06-14T00:52:02;19.10;;;11.77;;
18316;SDS011;9284;52.298;21.164;2023-06-14T00:54:31;18.27;;;11.93;;
18316;SDS011;9284;52.298;21.164;2023-06-14T00:57:04;21.08;;;12.63;;
18316;SDS011;9284;52.298;21.164;2023-06-14T00:59:35;19.35;;;12.68;;
18316;SDS011;9284;52.298;21.164;2023-06-14T01:02:08;22.20;;;12.95;;
18316;SDS011;9284;52.298;21.164;2023-06-14T01:04:37;21.10;;;12.70;;
18316;SDS011;9284;52.298;21.164;2023-06-14T01:07:10;19.33;;;12.18;;
18316;SDS011;9284;52.298;21.164;2023-06-14T01:09:47;21.83;;;12.98;;
18316;SDS011;9284;52.298;21.164;2023-06-14T01:12:27;19.00;;;12.65;;
18316;SDS011;9284;52.298;21.164;2023-06-14T01:15:01;21.17;;;12.73;;
18316;SDS011;9284;52.298;21.164;2023-06-14T01:17:30;22.80;;;12.65;;
18316;SDS011;9284;52.298;21.164;2023-06-14T01:20:02;18.35;;;12.90;;
18316;SDS011;9284;52.298;21.164;2023-06-14T01:22:37;20.98;;;12.90;;
18316;SDS011;9284;52.298;21.164;2023-06-14T01:25:12;19.17;;;12.25;;
18316;SDS011;9284;52.298;21.164;2023-06-14T01:27:46;19.45;;;12.25;;
18316;SDS011;9284;52.298;21.164;2023-06-14T01:30:25;18.17;;;12.27;;
18316;SDS011;9284;52.298;21.164;2023-06-14T01:32:54;20.88;;;11.88;;
18316;SDS011;9284;52.298;21.164;2023-06-14T01:35:24;19.95;;;12.15;;
18316;SDS011;9284;52.298;21.164;2023-06-14T01:37:55;21.25;;;11.55;;
18316;SDS011;9284;52.298;21.164;2023-06-14T01:40:28;17.13;;;11.13;;
18316;SDS011;9284;52.298;21.164;2023-06-14T01:42:58;20.88;;;11.55;;
18316;SDS011;9284;52.298;21.164;2023-06-14T01:45:28;17.90;;;11.63;;
18316;SDS011;9284;52.298;21.164;2023-06-14T01:47:58;21.90;;;11.48;;
18316;SDS011;9284;52.298;21.164;2023-06-14T01:50:28;15.27;;;11.05;;
18316;SDS011;9284;52.298;21.164;2023-06-14T01:52:59;18.63;;;11.48;;
18316;SDS011;9284;52.298;21.164;2023-06-14T01:55:28;17.77;;;11.18;;
18316;SDS011;9284;52.298;21.164;2023-06-14T01:58:05;17.52;;;11.63;;
18316;SDS011;9284;52.298;21.164;2023-06-14T02:00:34;17.98;;;11.07;;
18316;SDS011;9284;52.298;21.164;2023-06-14T02:03:03;17.00;;;11.00;;
18316;SDS011;9284;52.298;21.164;2023-06-14T02:05:31;32.28;;;20.00;;
18316;SDS011;9284;52.298;21.164;2023-06-14T02:08:05;342.98;;;119.22;;
18316;SDS011;9284;52.298;21.164;2023-06-14T02:10:34;258.42;;;114.38;;
18316;SDS011;9284;52.298;21.164;2023-06-14T02:13:02;95.38;;;56.15;;
18316;SDS011;9284;52.298;21.164;2023-06-14T02:15:31;117.03;;;69.53;;
18316;SDS011;9284;52.298;21.164;2023-06-14T02:18:02;157.02;;;88.07;;
18316;SDS011;9284;52.298;21.164;2023-06-14T02:20:37;143.48;;;91.38;;
18316;SDS011;9284;52.298;21.164;2023-06-14T02:23:07;88.03;;;52.63;;
18316;SDS011;9284;52.298;21.164;2023-06-14T02:25:42;119.10;;;73.68;;
18316;SDS011;9284;52.298;21.164;2023-06-14T02:28:19;90.45;;;52.78;;
18316;SDS011;9284;52.298;21.164;2023-06-14T02:30:48;57.30;;;38.00;;
18316;SDS011;9284;52.298;21.164;2023-06-14T02:33:16;43.03;;;28.67;;
18316;SDS011;9284;52.298;21.164;2023-06-14T02:35:45;41.70;;;25.05;;
18316;SDS011;9284;52.298;21.164;2023-06-14T02:38:15;31.38;;;19.60;;
18316;SDS011;9284;52.298;21.164;2023-06-14T02:40:47;36.30;;;22.67;;
18316;SDS011;9284;52.298;21.164;2023-06-14T02:43:16;29.27;;;18.58;;
18316;SDS011;9284;52.298;21.164;2023-06-14T02:45:44;26.98;;;17.70;;
18316;SDS011;9284;52.298;21.164;2023-06-14T02:48:14;29.52;;;18.73;;
18316;SDS011;9284;52.298;21.164;2023-06-14T02:50:50;29.90;;;18.30;;
18316;SDS011;9284;52.298;21.164;2023-06-14T02:53:20;26.02;;;15.50;;
18316;SDS011;9284;52.298;21.164;2023-06-14T02:55:49;20.42;;;12.63;;
18316;SDS011;9284;52.298;21.164;2023-06-14T02:58:21;18.83;;;12.82;;
18316;SDS011;9284;52.298;21.164;2023-06-14T03:00:51;17.35;;;11.73;;
18316;SDS011;9284;52.298;21.164;2023-06-14T03:03:21;18.80;;;11.32;;
18316;SDS011;9284;52.298;21.164;2023-06-14T03:05:56;16.50;;;11.45;;
18316;SDS011;9284;52.298;21.164;2023-06-14T03:08:30;20.67;;;11.20;;
18316;SDS011;9284;52.298;21.164;2023-06-14T03:11:09;17.20;;;11.35;;
18316;SDS011;9284;52.298;21.164;2023-06-14T03:13:48;19.55;;;11.20;;
18316;SDS011;9284;52.298;21.164;2023-06-14T03:16:18;19.55;;;11.60;;
18316;SDS011;9284;52.298;21.164;2023-06-14T03:18:57;15.77;;;11.02;;
18316;SDS011;9284;52.298;21.164;2023-06-14T03:21:34;20.13;;;11.05;;
18316;SDS011;9284;52.298;21.164;2023-06-14T03:24:21;16.23;;;10.60;;
18316;SDS011;9284;52.298;21.164;2023-06-14T03:27:00;18.50;;;10.68;;
18316;SDS011;9284;52.298;21.164;2023-06-14T03:29:44;16.63;;;10.80;;
18316;SDS011;9284;52.298;21.164;2023-06-14T03:32:26;16.90;;;10.88;;
18316;SDS011;9284;52.298;21.164;2023-06-14T03:35:05;18.85;;;11.02;;
18316;SDS011;9284;52.298;21.164;2023-06-14T03:37:42;15.75;;;11.20;;
18316;SDS011;9284;52.298;21.164;2023-06-14T03:40:21;18.08;;;11.60;;
18316;SDS011;9284;52.298;21.164;2023-06-14T03:43:03;18.10;;;12.35;;
18316;SDS011;9284;52.298;21.164;2023-06-14T03:45:35;18.80;;;13.35;;
18316;SDS011;9284;52.298;21.164;2023-06-14T03:48:10;19.40;;;12.55;;
18316;SDS011;9284;52.298;21.164;2023-06-14T03:50:42;18.90;;;12.15;;
18316;SDS011;9284;52.298;21.164;2023-06-14T03:53:12;17.50;;;12.10;;
18316;SDS011;9284;52.298;21.164;2023-06-14T03:55:49;20.65;;;12.30;;
18316;SDS011;9284;52.298;21.164;2023-06-14T03:58:40;23.20;;;12.98;;
18316;SDS011;9284;52.298;21.164;2023-06-14T04:01:09;21.95;;;12.77;;
18316;SDS011;9284;52.298;21.164;2023-06-14T04:03:38;15.57;;;11.35;;
18316;SDS011;9284;52.298;21.164;2023-06-14T04:06:08;15.88;;;11.40;;
18316;SDS011;9284;52.298;21.164;2023-06-14T04:08:36;19.08;;;12.95;;
18316;SDS011;9284;52.298;21.164;2023-06-14T04:11:09;21.25;;;13.48;;
18316;SDS011;9284;52.298;21.164;2023-06-14T04:13:43;20.83;;;12.77;;
18316;SDS011;9284;52.298;21.164;2023-06-14T04:16:24;17.27;;;11.52;;
18316;SDS011;9284;52.298;21.164;2023-06-14T04:18:55;20.98;;;11.70;;
18316;SDS011;9284;52.298;21.164;2023-06-14T04:21:25;17.20;;;10.55;;
18316;SDS011;9284;52.298;21.164;2023-06-14T04:23:58;19.38;;;11.75;;
18316;SDS011;9284;52.298;21.164;2023-06-14T04:26:35;17.23;;;10.95;;
18316;SDS011;9284;52.298;21.164;2023-06-14T04:29:06;15.40;;;11.20;;
18316;SDS011;9284;52.298;21.164;2023-06-14T04:31:42;19.38;;;11.05;;
18316;SDS011;9284;52.298;21.164;2023-06-14T04:34:27;18.30;;;11.80;;
18316;SDS011;9284;52.298;21.164;2023-06-14T04:36:58;17.00;;;11.90;;
18316;SDS011;9284;52.298;21.164;2023-06-14T04:39:36;20.00;;;11.20;;
18316;SDS011;9284;52.298;21.164;2023-06-14T04:42:15;18.50;;;11.38;;
18316;SDS011;9284;52.298;21.164;2023-06-14T04:44:53;13.43;;;10.07;;
18316;SDS011;9284;52.298;21.164;2023-06-14T04:47:26;17.67;;;10.13;;
18316;SDS011;9284;52.298;21.164;2023-06-14T04:49:59;13.25;;;10.93;;
18316;SDS011;9284;52.298;21.164;2023-06-14T04:52:31;17.02;;;11.13;;
18316;SDS011;9284;52.298;21.164;2023-06-14T04:55:05;15.15;;;10.27;;
18316;SDS011;9284;52.298;21.164;2023-06-14T04:57:38;21.95;;;10.70;;
18316;SDS011;9284;52.298;21.164;2023-06-14T05:00:08;14.93;;;10.65;;
18316;SDS011;9284;52.298;21.164;2023-06-14T05:02:44;16.52;;;11.43;;
18316;SDS011;9284;52.298;21.164;2023-06-14T05:05:15;16.55;;;11.18;;
18316;SDS011;9284;52.298;21.164;2023-06-14T05:07:46;14.55;;;11.05;;
18316;SDS011;9284;52.298;21.164;2023-06-14T05:10:22;15.10;;;11.48;;
18316;SDS011;9284;52.298;21.164;2023-06-14T05:12:55;18.23;;;11.25;;
18316;SDS011;9284;52.298;21.164;2023-06-14T05:15:26;14.30;;;10.63;;
18316;SDS011;9284;52.298;21.164;2023-06-14T05:17:57;12.18;;;9.80;;
18316;SDS011;9284;52.298;21.164;2023-06-14T05:20:33;13.85;;;10.00;;
18316;SDS011;9284;52.298;21.164;2023-06-14T05:23:03;12.40;;;9.60;;
18316;SDS011;9284;52.298;21.164;2023-06-14T05:25:36;11.65;;;9.93;;
18316;SDS011;9284;52.298;21.164;2023-06-14T05:31:03;14.18;;;9.50;;
18316;SDS011;9284;52.298;21.164;2023-06-14T05:33:40;14.75;;;9.88;;
18316;SDS011;9284;52.298;21.164;2023-06-14T05:36:13;11.77;;;9.55;;
18316;SDS011;9284;52.298;21.164;2023-06-14T05:38:47;13.48;;;8.77;;
18316;SDS011;9284;52.298;21.164;2023-06-14T05:41:26;13.77;;;9.15;;
18316;SDS011;9284;52.298;21.164;2023-06-14T05:44:00;13.70;;;9.25;;
18316;SDS011;9284;52.298;21.164;2023-06-14T05:46:31;12.85;;;9.18;;
18316;SDS011;9284;52.298;21.164;2023-06-14T05:49:04;14.32;;;9.43;;
18316;SDS011;9284;52.298;21.164;2023-06-14T05:51:34;14.77;;;9.88;;
18316;SDS011;9284;52.298;21.164;2023-06-14T05:54:02;15.13;;;9.88;;
18316;SDS011;9284;52.298;21.164;2023-06-14T05:56:31;13.68;;;10.38;;
18316;SDS011;9284;52.298;21.164;2023-06-14T05:59:00;12.02;;;9.18;;
18316;SDS011;9284;52.298;21.164;2023-06-14T06:01:29;13.40;;;9.80;;
18316;SDS011;9284;52.298;21.164;2023-06-14T06:03:59;15.10;;;9.52;;
18316;SDS011;9284;52.298;21.164;2023-06-14T06:06:27;13.52;;;9.07;;
18316;SDS011;9284;52.298;21.164;2023-06-14T06:08:56;12.93;;;9.85;;
18316;SDS011;9284;52.298;21.164;2023-06-14T06:11:24;12.60;;;9.60;;
18316;SDS011;9284;52.298;21.164;2023-06-14T06:14:01;17.50;;;9.77;;
18316;SDS011;9284;52.298;21.164;2023-06-14T06:16:30;14.88;;;9.43;;
18316;SDS011;9284;52.298;21.164;2023-06-14T06:18:58;16.00;;;10.73;;
18316;SDS011;9284;52.298;21.164;2023-06-14T06:21:26;12.77;;;10.23;;
18316;SDS011;9284;52.298;21.164;2023-06-14T06:23:55;13.82;;;10.23;;
18316;SDS011;9284;52.298;21.164;2023-06-14T06:26:23;16.58;;;10.65;;
18316;SDS011;9284;52.298;21.164;2023-06-14T06:28:53;16.67;;;9.65;;
18316;SDS011;9284;52.298;21.164;2023-06-14T06:31:23;11.25;;;9.18;;
18316;SDS011;9284;52.298;21.164;2023-06-14T06:33:54;12.98;;;9.38;;
18316;SDS011;9284;52.298;21.164;2023-06-14T06:36:23;13.15;;;9.40;;
18316;SDS011;9284;52.298;21.164;2023-06-14T06:38:51;12.73;;;9.30;;
18316;SDS011;9284;52.298;21.164;2023-06-14T06:41:19;15.88;;;9.30;;
18316;SDS011;9284;52.298;21.164;2023-06-14T06:43:48;14.63;;;9.75;;
18316;SDS011;9284;52.298;21.164;2023-06-14T06:46:16;12.88;;;9.82;;
18316;SDS011;9284;52.298;21.164;2023-06-14T06:48:47;11.95;;;9.30;;
18316;SDS011;9284;52.298;21.164;2023-06-14T06:51:15;16.63;;;9.85;;
18316;SDS011;9284;52.298;21.164;2023-06-14T06:53:48;12.85;;;8.80;;
18316;SDS011;9284;52.298;21.164;2023-06-14T06:56:20;16.55;;;10.43;;
18316;SDS011;9284;52.298;21.164;2023-06-14T06:58:49;12.40;;;9.48;;
18316;SDS011;9284;52.298;21.164;2023-06-14T07:01:18;15.07;;;10.48;;
18316;SDS011;9284;52.298;21.164;2023-06-14T07:03:48;12.70;;;9.60;;
18316;SDS011;9284;52.298;21.164;2023-06-14T07:06:17;11.93;;;9.27;;
18316;SDS011;9284;52.298;21.164;2023-06-14T07:08:47;15.52;;;9.25;;
18316;SDS011;9284;52.298;21.164;2023-06-14T07:11:20;13.93;;;8.93;;
18316;SDS011;9284;52.298;21.164;2023-06-14T07:13:49;14.85;;;7.93;;
18316;SDS011;9284;52.298;21.164;2023-06-14T07:16:19;11.25;;;8.93;;
18316;SDS011;9284;52.298;21.164;2023-06-14T07:18:57;10.93;;;7.55;;
18316;SDS011;9284;52.298;21.164;2023-06-14T07:21:29;13.27;;;8.32;;
18316;SDS011;9284;52.298;21.164;2023-06-14T07:24:01;9.82;;;7.45;;
18316;SDS011;9284;52.298;21.164;2023-06-14T07:26:41;13.43;;;7.30;;
18316;SDS011;9284;52.298;21.164;2023-06-14T07:29:12;10.50;;;7.25;;
18316;SDS011;9284;52.298;21.164;2023-06-14T07:31:43;11.43;;;7.15;;
18316;SDS011;9284;52.298;21.164;2023-06-14T07:34:15;12.10;;;6.30;;
18316;SDS011;9284;52.298;21.164;2023-06-14T07:36:46;10.95;;;7.07;;
18316;SDS011;9284;52.298;21.164;2023-06-14T07:39:14;10.73;;;6.85;;
18316;SDS011;9284;52.298;21.164;2023-06-14T07:41:43;10.40;;;6.25;;
18316;SDS011;9284;52.298;21.164;2023-06-14T07:44:11;10.27;;;6.10;;
18316;SDS011;9284;52.298;21.164;2023-06-14T07:46:41;7.25;;;5.53;;
18316;SDS011;9284;52.298;21.164;2023-06-14T07:49:12;11.50;;;5.53;;
18316;SDS011;9284;52.298;21.164;2023-06-14T07:51:43;11.90;;;5.43;;
18316;SDS011;9284;52.298;21.164;2023-06-14T07:54:13;8.10;;;5.60;;
18316;SDS011;9284;52.298;21.164;2023-06-14T07:56:46;7.00;;;5.32;;
18316;SDS011;9284;52.298;21.164;2023-06-14T07:59:16;5.45;;;4.72;;
18316;SDS011;9284;52.298;21.164;2023-06-14T08:01:54;6.90;;;5.07;;
18316;SDS011;9284;52.298;21.164;2023-06-14T08:04:29;6.90;;;4.97;;
18316;SDS011;9284;52.298;21.164;2023-06-14T08:07:12;7.65;;;4.85;;
18316;SDS011;9284;52.298;21.164;2023-06-14T08:09:43;7.47;;;4.97;;
18316;SDS011;9284;52.298;21.164;2023-06-14T08:12:14;8.38;;;4.65;;
18316;SDS011;9284;52.298;21.164;2023-06-14T08:14:43;8.07;;;5.07;;
18316;SDS011;9284;52.298;21.164;2023-06-14T08:17:26;6.22;;;5.10;;
18316;SDS011;9284;52.298;21.164;2023-06-14T08:19:57;10.88;;;4.70;;
18316;SDS011;9284;52.298;21.164;2023-06-14T08:22:27;8.98;;;5.00;;
18316;SDS011;9284;52.298;21.164;2023-06-14T08:25:00;7.15;;;5.05;;
18316;SDS011;9284;52.298;21.164;2023-06-14T08:27:29;9.07;;;4.57;;
18316;SDS011;9284;52.298;21.164;2023-06-14T08:29:57;6.65;;;4.20;;
18316;SDS011;9284;52.298;21.164;2023-06-14T08:32:26;7.13;;;4.10;;
18316;SDS011;9284;52.298;21.164;2023-06-14T08:34:55;9.10;;;4.82;;
18316;SDS011;9284;52.298;21.164;2023-06-14T08:37:39;7.57;;;4.18;;
18316;SDS011;9284;52.298;21.164;2023-06-14T08:40:21;10.70;;;4.03;;
18316;SDS011;9284;52.298;21.164;2023-06-14T08:42:52;10.85;;;4.53;;
18316;SDS011;9284;52.298;21.164;2023-06-14T08:45:22;5.07;;;4.18;;
18316;SDS011;9284;52.298;21.164;2023-06-14T08:47:58;5.10;;;3.72;;
18316;SDS011;9284;52.298;21.164;2023-06-14T08:50:28;10.02;;;3.88;;
18316;SDS011;9284;52.298;21.164;2023-06-14T08:53:01;10.60;;;4.10;;
18316;SDS011;9284;52.298;21.164;2023-06-14T08:55:31;5.65;;;3.78;;
18316;SDS011;9284;52.298;21.164;2023-06-14T08:58:04;7.90;;;3.67;;
18316;SDS011;9284;52.298;21.164;2023-06-14T09:00:36;8.13;;;3.75;;
18316;SDS011;9284;52.298;21.164;2023-06-14T09:03:07;5.93;;;3.90;;
18316;SDS011;9284;52.298;21.164;2023-06-14T09:05:46;4.80;;;3.45;;
18316;SDS011;9284;52.298;21.164;2023-06-14T09:08:21;8.30;;;4.65;;
18316;SDS011;9284;52.298;21.164;2023-06-14T09:10:55;7.63;;;4.03;;
18316;SDS011;9284;52.298;21.164;2023-06-14T09:13:29;10.18;;;4.78;;
18316;SDS011;9284;52.298;21.164;2023-06-14T09:16:05;7.15;;;4.75;;
18316;SDS011;9284;52.298;21.164;2023-06-14T09:18:37;7.78;;;4.93;;
18316;SDS011;9284;52.298;21.164;2023-06-14T09:21:14;10.68;;;5.05;;
18316;SDS011;9284;52.298;21.164;2023-06-14T09:24:15;9.35;;;5.60;;
18316;SDS011;9284;52.298;21.164;2023-06-14T09:26:57;11.88;;;5.95;;
18316;SDS011;9284;52.298;21.164;2023-06-14T09:29:31;11.40;;;5.22;;
18316;SDS011;9284;52.298;21.164;2023-06-14T09:32:01;6.68;;;5.00;;
18316;SDS011;9284;52.298;21.164;2023-06-14T09:34:32;9.50;;;5.45;;
18316;SDS011;9284;52.298;21.164;2023-06-14T09:37:08;15.10;;;5.15;;
18316;SDS011;9284;52.298;21.164;2023-06-14T09:39:50;9.95;;;5.10;;
18316;SDS011;9284;52.298;21.164;2023-06-14T09:42:29;6.30;;;4.53;;
18316;SDS011;9284;52.298;21.164;2023-06-14T09:45:16;5.88;;;4.38;;
18316;SDS011;9284;52.298;21.164;2023-06-14T09:48:20;10.63;;;4.75;;
18316;SDS011;9284;52.298;21.164;2023-06-14T09:51:17;6.45;;;4.30;;
18316;SDS011;9284;52.298;21.164;2023-06-14T10:00:18;6.32;;;3.90;;
18316;SDS011;9284;52.298;21.164;2023-06-14T10:03:24;5.70;;;3.80;;
18316;SDS011;9284;52.298;21.164;2023-06-14T10:06:28;5.15;;;3.50;;
18316;SDS011;9284;52.298;21.164;2023-06-14T10:09:53;5.15;;;3.65;;
18316;SDS011;9284;52.298;21.164;2023-06-14T10:16:10;7.60;;;3.67;;
18316;SDS011;9284;52.298;21.164;2023-06-14T10:19:04;7.88;;;3.78;;
18316;SDS011;9284;52.298;21.164;2023-06-14T10:23:11;6.45;;;3.28;;
18316;SDS011;9284;52.298;21.164;2023-06-14T10:26:26;6.80;;;3.28;;
18316;SDS011;9284;52.298;21.164;2023-06-14T10:39:37;5.80;;;3.63;;
18316;SDS011;9284;52.298;21.164;2023-06-14T10:42:57;5.82;;;3.92;;
18316;SDS011;9284;52.298;21.164;2023-06-14T10:53:59;5.10;;;3.72;;
18316;SDS011;9284;52.298;21.164;2023-06-14T10:57:37;4.38;;;3.70;;
18316;SDS011;9284;52.298;21.164;2023-06-14T11:59:41;5.00;;;2.05;;
18316;SDS011;9284;52.298;21.164;2023-06-14T12:03:23;3.20;;;2.40;;
18316;SDS011;9284;52.298;21.164;2023-06-14T12:06:52;4.85;;;2.70;;
18316;SDS011;9284;52.298;21.164;2023-06-14T12:10:03;9.02;;;2.80;;
18316;SDS011;9284;52.298;21.164;2023-06-14T12:14:00;7.38;;;2.75;;
18316;SDS011;9284;52.298;21.164;2023-06-14T12:16:06;4.50;;;2.67;;
18316;SDS011;9284;52.298;21.164;2023-06-14T12:19:25;4.57;;;2.40;;
18316;SDS011;9284;52.298;21.164;2023-06-14T12:22:14;6.80;;;2.90;;
18316;SDS011;9284;52.298;21.164;2023-06-14T12:25:28;3.88;;;2.30;;
18316;SDS011;9284;52.298;21.164;2023-06-14T12:29:15;2.97;;;1.90;;
18316;SDS011;9284;52.298;21.164;2023-06-14T12:36:40;5.95;;;1.83;;
18316;SDS011;9284;52.298;21.164;2023-06-14T12:39:56;5.32;;;1.90;;
18316;SDS011;9284;52.298;21.164;2023-06-14T12:42:39;3.47;;;1.95;;
18316;SDS011;9284;52.298;21.164;2023-06-14T12:45:26;2.38;;;1.90;;
18316;SDS011;9284;52.298;21.164;2023-06-14T12:48:36;4.70;;;2.08;;
18316;SDS011;9284;52.298;21.164;2023-06-14T13:02:31;5.78;;;2.30;;
18316;SDS011;9284;52.298;21.164;2023-06-14T13:05:47;4.45;;;2.15;;
18316;SDS011;9284;52.298;21.164;2023-06-14T13:09:01;3.45;;;2.35;;
18316;SDS011;9284;52.298;21.164;2023-06-14T13:12:06;3.65;;;1.90;;
18316;SDS011;9284;52.298;21.164;2023-06-14T13:15:23;4.30;;;1.92;;
18316;SDS011;9284;52.298;21.164;2023-06-14T13:21:48;3.53;;;1.85;;
18316;SDS011;9284;52.298;21.164;2023-06-14T13:24:35;3.10;;;2.10;;
18316;SDS011;9284;52.298;21.164;2023-06-14T13:27:42;3.95;;;2.03;;
18316;SDS011;9284;52.298;21.164;2023-06-14T13:30:18;3.40;;;2.20;;
18316;SDS011;9284;52.298;21.164;2023-06-14T13:32:53;2.65;;;2.00;;
18316;SDS011;9284;52.298;21.164;2023-06-14T13:35:24;2.28;;;2.08;;
18316;SDS011;9284;52.298;21.164;2023-06-14T13:37:53;5.07;;;2.13;;
18316;SDS011;9284;52.298;21.164;2023-06-14T13:40:29;2.58;;;2.05;;
18316;SDS011;9284;52.298;21.164;2023-06-14T13:42:58;3.63;;;2.55;;
18316;SDS011;9284;52.298;21.164;2023-06-14T13:45:43;3.08;;;2.10;;
18316;SDS011;9284;52.298;21.164;2023-06-14T13:48:32;4.00;;;1.77;;
18316;SDS011;9284;52.298;21.164;2023-06-14T13:51:07;3.17;;;2.10;;
18316;SDS011;9284;52.298;21.164;2023-06-14T13:53:40;4.75;;;2.10;;
18316;SDS011;9284;52.298;21.164;2023-06-14T13:56:33;2.55;;;1.90;;
18316;SDS011;9284;52.298;21.164;2023-06-14T13:59:07;6.25;;;2.20;;
18316;SDS011;9284;52.298;21.164;2023-06-14T14:01:43;3.30;;;2.47;;
18316;SDS011;9284;52.298;21.164;2023-06-14T14:04:43;3.58;;;2.20;;
18316;SDS011;9284;52.298;21.164;2023-06-14T14:07:44;4.65;;;2.45;;
18316;SDS011;9284;52.298;21.164;2023-06-14T14:10:24;2.92;;;2.00;;
18316;SDS011;9284;52.298;21.164;2023-06-14T14:13:23;4.85;;;2.20;;
18316;SDS011;9284;52.298;21.164;2023-06-14T14:16:34;2.67;;;2.10;;
18316;SDS011;9284;52.298;21.164;2023-06-14T14:19:07;6.05;;;2.10;;
18316;SDS011;9284;52.298;21.164;2023-06-14T14:21:36;3.22;;;2.20;;
18316;SDS011;9284;52.298;21.164;2023-06-14T14:24:32;2.83;;;1.95;;
18316;SDS011;9284;52.298;21.164;2023-06-14T14:27:12;4.93;;;2.25;;
18316;SDS011;9284;52.298;21.164;2023-06-14T14:29:45;3.55;;;2.10;;
18316;SDS011;9284;52.298;21.164;2023-06-14T14:32:29;4.18;;;1.90;;
18316;SDS011;9284;52.298;21.164;2023-06-14T14:35:29;3.80;;;2.00;;
18316;SDS011;9284;52.298;21.164;2023-06-14T14:44:58;2.45;;;1.70;;
18316;SDS011;9284;52.298;21.164;2023-06-14T14:47:44;4.68;;;2.10;;
18316;SDS011;9284;52.298;21.164;2023-06-14T14:50:50;4.15;;;2.67;;
18316;SDS011;9284;52.298;21.164;2023-06-14T14:54:18;7.05;;;2.28;;
18316;SDS011;9284;52.298;21.164;2023-06-14T14:57:23;4.13;;;2.55;;
18316;SDS011;9284;52.298;21.164;2023-06-14T15:03:25;7.32;;;2.60;;
18316;SDS011;9284;52.298;21.164;2023-06-14T15:06:31;4.70;;;2.88;;
18316;SDS011;9284;52.298;21.164;2023-06-14T15:09:27;2.83;;;2.45;;
18316;SDS011;9284;52.298;21.164;2023-06-14T15:12:07;5.90;;;2.95;;
18316;SDS011;9284;52.298;21.164;2023-06-14T15:14:58;5.22;;;2.33;;
18316;SDS011;9284;52.298;21.164;2023-06-14T15:17:38;4.70;;;2.90;;
18316;SDS011;9284;52.298;21.164;2023-06-14T15:20:10;5.28;;;3.30;;
18316;SDS011;9284;52.298;21.164;2023-06-14T15:22:50;5.05;;;3.38;;
18316;SDS011;9284;52.298;21.164;2023-06-14T15:25:34;3.65;;;2.50;;
18316;SDS011;9284;52.298;21.164;2023-06-14T15:28:15;4.10;;;2.55;;
18316;SDS011;9284;52.298;21.164;2023-06-14T15:31:05;4.40;;;2.55;;
18316;SDS011;9284;52.298;21.164;2023-06-14T15:33:48;4.90;;;2.97;;
18316;SDS011;9284;52.298;21.164;2023-06-14T15:36:24;7.13;;;2.90;;
18316;SDS011;9284;52.298;21.164;2023-06-14T15:39:07;4.63;;;3.25;;
18316;SDS011;9284;52.298;21.164;2023-06-14T15:41:52;6.40;;;3.17;;
18316;SDS011;9284;52.298;21.164;2023-06-14T15:44:56;5.28;;;3.13;;
18316;SDS011;9284;52.298;21.164;2023-06-14T15:47:54;6.75;;;3.10;;
18316;SDS011;9284;52.298;21.164;2023-06-14T15:50:51;6.65;;;2.97;;
18316;SDS011;9284;52.298;21.164;2023-06-14T15:53:33;3.97;;;3.25;;
18316;SDS011;9284;52.298;21.164;2023-06-14T15:56:34;4.38;;;3.10;;
18316;SDS011;9284;52.298;21.164;2023-06-14T15:59:22;3.67;;;2.90;;
18316;SDS011;9284;52.298;21.164;2023-06-14T16:02:04;4.45;;;3.30;;
18316;SDS011;9284;52.298;21.164;2023-06-14T16:04:55;6.35;;;3.20;;
18316;SDS011;9284;52.298;21.164;2023-06-14T16:07:56;5.53;;;3.20;;
18316;SDS011;9284;52.298;21.164;2023-06-14T16:11:04;6.22;;;3.13;;
18316;SDS011;9284;52.298;21.164;2023-06-14T16:14:11;9.27;;;4.18;;
18316;SDS011;9284;52.298;21.164;2023-06-14T16:16:55;6.65;;;3.55;;
18316;SDS011;9284;52.298;21.164;2023-06-14T16:20:34;9.93;;;3.80;;
18316;SDS011;9284;52.298;21.164;2023-06-14T16:23:18;6.68;;;4.10;;
18316;SDS011;9284;52.298;21.164;2023-06-14T16:25:48;7.28;;;3.42;;
18316;SDS011;9284;52.298;21.164;2023-06-14T16:28:26;5.47;;;3.92;;
18316;SDS011;9284;52.298;21.164;2023-06-14T16:31:00;7.70;;;4.03;;
18316;SDS011;9284;52.298;21.164;2023-06-14T16:34:00;6.35;;;3.75;;
18316;SDS011;9284;52.298;21.164;2023-06-14T16:36:31;5.78;;;3.60;;
18316;SDS011;9284;52.298;21.164;2023-06-14T16:39:01;5.35;;;3.50;;
18316;SDS011;9284;52.298;21.164;2023-06-14T16:41:29;4.50;;;3.30;;
18316;SDS011;9284;52.298;21.164;2023-06-14T16:43:57;6.15;;;3.28;;
18316;SDS011;9284;52.298;21.164;2023-06-14T16:46:32;6.35;;;3.78;;
18316;SDS011;9284;52.298;21.164;2023-06-14T16:49:02;8.82;;;4.03;;
18316;SDS011;9284;52.298;21.164;2023-06-14T16:51:31;8.88;;;4.32;;
18316;SDS011;9284;52.298;21.164;2023-06-14T16:54:01;5.47;;;3.83;;
18316;SDS011;9284;52.298;21.164;2023-06-14T16:56:30;6.60;;;3.67;;
18316;SDS011;9284;52.298;21.164;2023-06-14T16:58:58;7.53;;;3.60;;
18316;SDS011;9284;52.298;21.164;2023-06-14T17:01:26;9.82;;;4.07;;
18316;SDS011;9284;52.298;21.164;2023-06-14T17:03:55;4.57;;;3.75;;
18316;SDS011;9284;52.298;21.164;2023-06-14T17:06:24;6.28;;;3.75;;
18316;SDS011;9284;52.298;21.164;2023-06-14T17:08:52;5.00;;;3.70;;
18316;SDS011;9284;52.298;21.164;2023-06-14T17:11:22;8.15;;;3.88;;
18316;SDS011;9284;52.298;21.164;2023-06-14T17:13:51;5.13;;;3.53;;
18316;SDS011;9284;52.298;21.164;2023-06-14T17:16:23;9.75;;;3.50;;
18316;SDS011;9284;52.298;21.164;2023-06-14T17:18:53;4.45;;;3.45;;
18316;SDS011;9284;52.298;21.164;2023-06-14T17:21:24;4.72;;;3.85;;
18316;SDS011;9284;52.298;21.164;2023-06-14T17:23:54;4.10;;;3.60;;
18316;SDS011;9284;52.298;21.164;2023-06-14T17:26:37;3.97;;;3.30;;
18316;SDS011;9284;52.298;21.164;2023-06-14T17:29:13;6.57;;;3.60;;
18316;SDS011;9284;52.298;21.164;2023-06-14T17:31:51;6.88;;;3.88;;
18316;SDS011;9284;52.298;21.164;2023-06-14T17:34:20;7.03;;;3.90;;
18316;SDS011;9284;52.298;21.164;2023-06-14T17:36:50;8.60;;;3.70;;
18316;SDS011;9284;52.298;21.164;2023-06-14T17:39:20;6.60;;;3.78;;
18316;SDS011;9284;52.298;21.164;2023-06-14T17:41:50;7.82;;;3.90;;
18316;SDS011;9284;52.298;21.164;2023-06-14T17:44:18;6.60;;;3.70;;